Terminal Aerodrome Forecast
Issued by NWS Denver/Boulder, CO

Home | Current Version | Previous Version | Text Only | Print | Product List | Glossary On
Versions: 1 2 3 4 5 6 7 8 9 10 11 12 13 14 15 16 17 18 19 20 21 22 23 24 25 26 27 28 29 30 31 32 33 34
000
FTUS45 KBOU 182102 AAB
TAFDEN
TAF AMD
KDEN 182102Z 1821/1924 15007KT P6SM FEW100 SCT220
     FM182300 23010KT P6SM FEW140 SCT220
     FM190300 20008KT P6SM SCT140 BKN200
     FM190800 25008KT P6SM SCT140 BKN200
     FM191400 36010KT P6SM SCT100 BKN180
     FM191900 04008KT P6SM SCT070 BKN150 PROB30 1920/1924 -TSRA
      BKN060CB=

USA.gov is the U.S. government's official web portal to all federal, state and local government web resources and services.